aviador You're here:

KUGN Decoded Metar

CHICAGO in IL, USA
Report Time2018-05-28 08:55:00
UTC Time2018-05-28 09:56:14
Flight Rules vfr VFR
Wind240° at 03 kt
W.Decomp.*RWY 23: 2.9 kt HW 0.7 kt RCW
RWY 32: 0.7 kt HW 2.9 kt LCW
W.Rank240° ranks 16
Current wind is below 240° avg. (6.1)
Visibility9999 m
Phenomena:N/A
Clouds:N/A
Expected CloudBase > 800 ft AGL from Temp-Dew spread
CeilingNone
Temp19°C (ISA +5)
Dew Point17°C (88% RH)
QNH1012 hPa
Density Alt1,660 ft
Elevation728 ft
Report Wrong Elevation
Raw Report
KUGN 280855Z AUTO 24003KT 10SM CLR 19/17 A2989 RMK AO2 SLP109
T01940167 53001=

Extra information for KUGN:More info

Metar Taf Metar & Taf Last 4 Metars F.Rules Stats Wind Profile Meteogram Temp Stats Airport Information Weather charts Add Link Nearby VenuesMetar ALERT Operation Metar Decoded Social comments

AIRNAV info for KUGN